Sioux Gateway Col. Bud Day Field
KSUX : now visible

Airfield :











YOU CAN JOIN US ON...

 
LOGIN :

Register | Disclaimer

   EN    FR    IT 

 









Legend :    VFR   Marginal VFR   IFR   Intensive IFR   Very Intensive IFR
Visi :
Ceiling :
>= 8 km
>= 3000ft
5 to 8 km
1000 to 3000 ft
1500m to 5 km
500 to 1000 ft
800 to 1500m
200 to 500 ft
< 800m
< 200 ft
Symbols :   Thunderstorms  Fog  Heavy snow  Heavy precipitations  Wind > 20 kt






- Airport Elevation : 1098 ft
- IATA code : SUX


KSUX - Sioux Gateway Col. Bud Day Field

CURRENT METAR :
  • 071552Z 03008G17KT 10SM FEW100 16/M03 A3016 RMK AO2 SLP215 T01561028

EXPIRED METARs :
  • 071452Z 04011KT 10SM CLR 14/M02 A3016 RMK AO2 SLP217 T01391017 50008
  • 071352Z 03006KT 10SM CLR 11/02 A3017 RMK AO2 SLP221 T01110017

TAF KSUX
Valid from the 07 at 12:00 until the 08 at 12:00 UTC


071122Z 0712/0812 02007KT P6SM FEW100
FM071400 04009KT P6SM SCT090
FM072300 07007KT P6SM FEW200
FM080900 10010G15KT P6SM SCT070 BKN150
KZMP FIR / North America



MET'MAP, your aeronautical weather chart ! - Copyright ORBIFLY December 2007 - Disclaimer

ORBIFLY MET'MAP TEAM :

Programming & Development : Alexandra Zaïnal
Concept & original design : Baudouin d'Aumeries
Assistance for programming : Marc-Olivier Méhu
Technical & hardware support : Manuel Goepfert

Contact : metmap@orbifly.com




SOURCES & CREDITS :

   NOAA       Earth
Advisory